Time;durP1;ratioP1;P1;durP2;ratioP2;P2;SDS_P1;SDS_P2;PMS_P1;PMS_P2;Temp;Humidity;BMP_temperature;BMP_pressure;BME280_temperature;BME280_humidity;BME280_pressure;Samples;Min_cycle;Max_cycle;Signal;HPM_P1;HPM_P2
2021/09/07 00:00:52;;;;;;;10.67;8.80;;;16.00;99.90;;;;;;5029172;28;20460;-77
2021/09/07 00:03:38;;;;;;;15.43;8.97;;;16.10;99.90;;;;;;5031232;28;20569;-77
2021/09/07 00:06:23;;;;;;;10.50;8.57;;;16.20;99.90;;;;;;5031155;28;20470;-77
2021/09/07 00:09:09;;;;;;;10.50;8.80;;;16.10;99.90;;;;;;5031427;28;20446;-77
2021/09/07 00:11:56;;;;;;;12.90;9.00;;;16.00;99.90;;;;;;5033747;28;20527;-77
2021/09/07 00:14:41;;;;;;;10.20;8.70;;;16.00;99.90;;;;;;5035798;28;20764;-77
2021/09/07 00:17:27;;;;;;;9.70;8.10;;;16.10;99.90;;;;;;5034143;28;20517;-77
2021/09/07 00:20:14;;;;;;;15.63;9.10;;;16.20;99.90;;;;;;5029041;28;20945;-77
2021/09/07 00:22:59;;;;;;;11.70;8.80;;;16.20;99.90;;;;;;5023852;28;20420;-77
2021/09/07 00:25:45;;;;;;;11.97;9.80;;;16.30;99.90;;;;;;5034508;28;20428;-76
2021/09/07 00:28:32;;;;;;;9.43;8.43;;;16.20;99.90;;;;;;5034091;28;20823;-77
2021/09/07 00:31:18;;;;;;;12.27;8.77;;;16.00;99.90;;;;;;5030458;28;20557;-77
2021/09/07 00:34:03;;;;;;;13.07;8.60;;;16.00;99.90;;;;;;5035485;28;20434;-77
2021/09/07 00:36:49;;;;;;;10.30;8.50;;;16.00;99.90;;;;;;5033862;28;20400;-77
2021/09/07 00:39:34;;;;;;;9.70;8.20;;;15.90;99.90;;;;;;5034420;28;20477;-77
2021/09/07 00:42:20;;;;;;;9.13;8.20;;;15.90;99.90;;;;;;5034858;28;20528;-77
2021/09/07 00:45:10;;;;;;;10.00;8.50;;;15.90;99.90;;;;;;5023653;28;20419;-77
2021/09/07 00:47:56;;;;;;;9.80;8.17;;;15.90;99.90;;;;;;5023664;28;20948;-76
2021/09/07 00:50:42;;;;;;;11.97;9.30;;;15.80;99.90;;;;;;5033014;28;20854;-77
2021/09/07 00:53:27;;;;;;;10.77;9.33;;;15.60;99.90;;;;;;5029993;28;20481;-77
2021/09/07 00:56:14;;;;;;;11.73;9.00;;;15.50;99.90;;;;;;5028756;28;20432;-76
2021/09/07 00:59:00;;;;;;;13.00;9.10;;;15.40;99.90;;;;;;5034221;28;20971;-77
2021/09/07 01:01:48;;;;;;;13.17;9.50;;;15.30;99.90;;;;;;5034881;28;20428;-77
2021/09/07 01:04:34;;;;;;;11.83;9.40;;;15.20;99.90;;;;;;5031442;28;20387;-77
2021/09/07 01:07:20;;;;;;;9.33;7.90;;;15.30;99.90;;;;;;5028472;28;20562;-77
2021/09/07 01:10:08;;;;;;;10.63;9.20;;;15.40;99.90;;;;;;5034900;28;20456;-77
2021/09/07 01:12:55;;;;;;;12.43;9.13;;;15.50;99.90;;;;;;5033484;28;20481;-76
2021/09/07 01:15:42;;;;;;;10.80;9.60;;;15.50;99.90;;;;;;5031734;28;20584;-77
2021/09/07 01:18:30;;;;;;;11.50;8.23;;;15.50;99.90;;;;;;5030972;28;20400;-76
2021/09/07 01:21:18;;;;;;;12.70;9.40;;;15.60;99.90;;;;;;5031792;28;21255;-77
2021/09/07 01:24:04;;;;;;;10.23;8.30;;;15.60;99.90;;;;;;5034289;28;20481;-76
2021/09/07 01:26:51;;;;;;;10.67;8.50;;;15.70;99.90;;;;;;5033485;28;20424;-77
2021/09/07 01:29:39;;;;;;;13.20;9.50;;;15.70;99.90;;;;;;5033290;28;20451;-77
2021/09/07 01:32:24;;;;;;;10.20;8.53;;;15.70;99.90;;;;;;5032861;28;20533;-76
2021/09/07 01:35:10;;;;;;;11.40;8.90;;;15.60;99.90;;;;;;5033367;28;20814;-77
2021/09/07 01:37:56;;;;;;;13.07;9.20;;;15.60;99.90;;;;;;5032563;28;20425;-77
2021/09/07 01:40:42;;;;;;;13.73;9.17;;;15.60;99.90;;;;;;5033944;28;20428;-77
2021/09/07 01:43:29;;;;;;;12.10;9.43;;;15.50;99.90;;;;;;5033220;28;20425;-77
2021/09/07 01:46:14;;;;;;;10.23;8.53;;;15.40;99.90;;;;;;5032849;28;20503;-77
2021/09/07 01:49:00;;;;;;;15.47;8.60;;;15.30;99.90;;;;;;5021241;28;20436;-77
2021/09/07 01:51:47;;;;;;;11.23;9.40;;;15.20;99.90;;;;;;5029750;28;20476;-77
2021/09/07 01:54:33;;;;;;;10.60;9.47;;;15.20;99.90;;;;;;5032421;28;20449;-76
2021/09/07 01:57:18;;;;;;;12.77;9.23;;;15.10;99.90;;;;;;5028522;28;20404;-77
2021/09/07 02:00:07;;;;;;;9.77;8.77;;;15.20;99.90;;;;;;5033216;28;20519;-77
2021/09/07 02:02:52;;;;;;;13.20;9.27;;;15.10;99.90;;;;;;5032738;28;20410;-77
2021/09/07 02:05:38;;;;;;;14.50;9.00;;;15.10;99.90;;;;;;5032696;28;20438;-77
2021/09/07 02:08:24;;;;;;;12.63;10.40;;;15.10;99.90;;;;;;5031463;28;20544;-77
2021/09/07 02:11:09;;;;;;;9.47;8.47;;;15.00;99.90;;;;;;5020265;28;20439;-76
2021/09/07 02:13:55;;;;;;;11.00;9.20;;;15.10;99.90;;;;;;5033815;28;20476;-77
2021/09/07 02:16:42;;;;;;;9.90;8.73;;;15.10;99.90;;;;;;5030782;28;20819;-77
2021/09/07 02:19:28;;;;;;;15.40;9.00;;;15.10;99.90;;;;;;5032182;28;20450;-77
2021/09/07 02:22:13;;;;;;;9.70;8.57;;;15.10;99.90;;;;;;5029656;28;20428;-77
2021/09/07 02:24:59;;;;;;;11.70;9.33;;;15.20;99.90;;;;;;5032282;28;20536;-77
2021/09/07 02:27:44;;;;;;;10.57;8.80;;;15.30;99.90;;;;;;5032915;28;20457;-77
2021/09/07 02:30:30;;;;;;;10.97;8.73;;;15.40;99.90;;;;;;5033074;28;20531;-76
2021/09/07 02:33:17;;;;;;;13.87;9.47;;;15.40;99.90;;;;;;5031039;28;20485;-75
2021/09/07 02:36:03;;;;;;;11.93;8.43;;;15.40;99.90;;;;;;5031147;28;20446;-77
2021/09/07 02:38:49;;;;;;;12.30;9.00;;;15.30;99.90;;;;;;5032374;28;20565;-77
2021/09/07 02:41:34;;;;;;;10.30;8.73;;;15.30;99.90;;;;;;5033263;28;20652;-77
2021/09/07 02:44:20;;;;;;;9.53;8.00;;;15.40;99.90;;;;;;5032980;28;20480;-76
2021/09/07 02:47:05;;;;;;;12.30;9.30;;;15.30;99.90;;;;;;5013339;28;20393;-76
2021/09/07 02:49:53;;;;;;;10.87;9.77;;;15.10;99.90;;;;;;5031767;28;20474;-75
2021/09/07 02:52:39;;;;;;;15.27;9.80;;;15.00;99.90;;;;;;5030575;28;20472;-76
2021/09/07 02:55:24;;;;;;;11.40;8.60;;;15.00;99.90;;;;;;5032501;28;20760;-76
2021/09/07 02:58:10;;;;;;;10.83;9.70;;;14.90;99.90;;;;;;5030795;28;20456;-77
2021/09/07 03:00:55;;;;;;;11.53;9.03;;;14.70;99.90;;;;;;5047849;22;20467;-73
2021/09/07 03:03:41;;;;;;;10.93;9.57;;;14.70;99.90;;;;;;5032572;28;20511;-72
2021/09/07 03:06:28;;;;;;;10.40;8.60;;;14.70;99.90;;;;;;5029692;28;20818;-73
2021/09/07 03:09:13;;;;;;;12.70;9.70;;;14.70;99.90;;;;;;5029901;28;20393;-73
2021/09/07 03:11:59;;;;;;;12.67;9.37;;;14.70;99.90;;;;;;5026576;28;20949;-73
2021/09/07 03:14:45;;;;;;;11.13;9.93;;;14.60;99.90;;;;;;5033312;28;20446;-71
2021/09/07 03:17:31;;;;;;;13.30;9.57;;;14.40;99.90;;;;;;5029209;28;20424;-73
2021/09/07 03:20:16;;;;;;;12.50;10.47;;;14.30;99.90;;;;;;5027873;28;20473;-73
2021/09/07 03:23:04;;;;;;;12.17;9.30;;;14.30;99.90;;;;;;5024742;28;20418;-72
2021/09/07 03:25:50;;;;;;;10.53;9.43;;;14.40;99.90;;;;;;5028154;28;20449;-73
2021/09/07 03:28:35;;;;;;;15.00;9.77;;;14.50;99.90;;;;;;5033822;28;20385;-73
2021/09/07 03:31:21;;;;;;;11.10;8.80;;;14.60;99.90;;;;;;5030302;28;20511;-73
2021/09/07 03:34:07;;;;;;;10.70;8.77;;;14.80;99.90;;;;;;5026408;28;20972;-72
2021/09/07 03:36:53;;;;;;;10.93;9.83;;;14.90;99.90;;;;;;5028818;28;20565;-73
2021/09/07 03:39:40;;;;;;;14.10;9.90;;;15.00;99.90;;;;;;5033542;28;20429;-70
2021/09/07 03:42:26;;;;;;;10.13;8.60;;;15.00;99.90;;;;;;5028843;28;20429;-73
2021/09/07 03:45:14;;;;;;;11.03;9.27;;;15.10;99.90;;;;;;5028587;28;20445;-71
2021/09/07 03:48:00;;;;;;;9.67;8.63;;;15.10;99.90;;;;;;5033475;28;20475;-73
2021/09/07 03:50:45;;;;;;;12.77;9.10;;;15.00;99.90;;;;;;5021670;28;20473;-73
2021/09/07 03:53:31;;;;;;;12.00;8.33;;;14.90;99.90;;;;;;5033222;28;20443;-72
2021/09/07 03:56:19;;;;;;;12.77;9.43;;;14.80;99.90;;;;;;5026963;28;20551;-73
2021/09/07 03:59:04;;;;;;;10.13;9.00;;;14.70;99.90;;;;;;5026021;28;20433;-73
2021/09/07 04:01:51;;;;;;;14.33;8.70;;;14.70;99.90;;;;;;5026265;28;20603;-73
2021/09/07 04:04:36;;;;;;;9.83;8.27;;;14.50;99.90;;;;;;5027240;28;20508;-73
2021/09/07 04:07:22;;;;;;;12.90;10.00;;;14.70;99.90;;;;;;5033789;28;20407;-73
2021/09/07 04:10:08;;;;;;;13.50;8.80;;;14.70;99.90;;;;;;5011134;28;20437;-72
2021/09/07 04:12:55;;;;;;;10.77;9.07;;;14.80;99.90;;;;;;5031586;28;20435;-73
2021/09/07 04:15:41;;;;;;;10.70;8.83;;;14.90;99.90;;;;;;5026514;28;20453;-73
2021/09/07 04:18:27;;;;;;;10.03;8.23;;;14.90;99.90;;;;;;5030923;28;20409;-74
2021/09/07 04:21:12;;;;;;;10.60;8.43;;;14.90;99.90;;;;;;5016210;28;20466;-73
2021/09/07 04:23:58;;;;;;;9.70;8.33;;;14.80;99.90;;;;;;5031265;28;20523;-73
2021/09/07 04:26:44;;;;;;;11.37;8.87;;;14.80;99.90;;;;;;5027629;28;20423;-73
2021/09/07 04:29:31;;;;;;;10.50;8.87;;;14.80;99.90;;;;;;5032601;28;20816;-73
2021/09/07 04:32:17;;;;;;;11.13;8.20;;;14.90;99.90;;;;;;5026179;28;20941;-73
2021/09/07 04:35:03;;;;;;;13.33;8.90;;;15.00;99.90;;;;;;5025223;28;20908;-73
2021/09/07 04:37:49;;;;;;;14.57;8.87;;;15.10;99.90;;;;;;5033056;28;20518;-70
2021/09/07 04:40:34;;;;;;;11.60;9.80;;;15.00;99.90;;;;;;5028476;28;20447;-71
2021/09/07 04:43:20;;;;;;;12.50;9.20;;;14.90;99.90;;;;;;5031107;28;20455;-71
2021/09/07 04:46:07;;;;;;;12.63;10.10;;;14.80;99.90;;;;;;5023052;28;21044;-71
2021/09/07 04:48:55;;;;;;;12.43;9.93;;;14.80;99.90;;;;;;5026675;28;20595;-71
2021/09/07 04:51:41;;;;;;;12.43;9.87;;;14.60;99.90;;;;;;5029716;28;20544;-70
2021/09/07 04:54:26;;;;;;;10.27;8.90;;;14.70;99.90;;;;;;5030269;28;20643;-71
2021/09/07 04:57:12;;;;;;;11.23;9.03;;;14.80;99.90;;;;;;5034466;28;20440;-72
2021/09/07 04:59:58;;;;;;;11.83;9.57;;;14.90;99.90;;;;;;5029837;28;20452;-70
2021/09/07 05:02:45;;;;;;;13.93;9.40;;;15.00;99.90;;;;;;5031053;28;20414;-72
2021/09/07 05:05:30;;;;;;;10.67;8.70;;;14.90;99.90;;;;;;5024093;28;20483;-71
2021/09/07 05:08:16;;;;;;;14.03;10.40;;;14.80;99.90;;;;;;5028297;28;20415;-71
2021/09/07 05:11:02;;;;;;;12.33;9.60;;;14.70;99.90;;;;;;5026437;28;20464;-71
2021/09/07 05:13:48;;;;;;;12.73;10.50;;;14.60;99.90;;;;;;5033950;28;20450;-71
2021/09/07 05:16:33;;;;;;;17.63;10.20;;;14.50;99.90;;;;;;5030536;28;20417;-72
2021/09/07 05:19:20;;;;;;;12.03;10.23;;;14.50;99.90;;;;;;5023708;28;20605;-71
2021/09/07 05:22:06;;;;;;;13.30;9.67;;;14.60;99.90;;;;;;5025925;28;20818;-70
2021/09/07 05:24:51;;;;;;;9.93;8.90;;;14.70;99.90;;;;;;5032775;28;20449;-71
2021/09/07 05:27:38;;;;;;;14.17;10.10;;;14.80;99.90;;;;;;5034283;28;20430;-71
2021/09/07 05:30:24;;;;;;;13.70;9.80;;;14.90;99.90;;;;;;5020149;28;20448;-71
2021/09/07 05:33:09;;;;;;;10.57;8.50;;;15.00;99.90;;;;;;5032046;28;20452;-71
2021/09/07 05:35:56;;;;;;;11.67;9.13;;;15.10;99.90;;;;;;5025596;28;20782;-70
2021/09/07 05:38:42;;;;;;;14.20;11.10;;;15.10;99.90;;;;;;5033246;28;20428;-70
2021/09/07 05:41:28;;;;;;;13.23;10.30;;;15.10;99.90;;;;;;5029726;28;20500;-70
2021/09/07 05:44:13;;;;;;;11.40;9.47;;;15.00;99.90;;;;;;5014169;28;20458;-71
2021/09/07 05:47:00;;;;;;;11.07;9.40;;;15.10;99.90;;;;;;5033116;28;20408;-70
2021/09/07 05:49:47;;;;;;;11.73;9.50;;;15.20;99.90;;;;;;5022476;28;20556;-70
2021/09/07 05:52:34;;;;;;;10.67;8.87;;;15.20;99.90;;;;;;5033972;28;20426;-70
2021/09/07 05:55:20;;;;;;;10.60;9.50;;;15.30;99.90;;;;;;5031262;28;20434;-70
2021/09/07 05:58:06;;;;;;;12.13;9.73;;;15.30;99.90;;;;;;5026749;28;20849;-70
2021/09/07 06:00:51;;;;;;;15.50;9.40;;;15.40;99.90;;;;;;5026160;28;20521;-70
2021/09/07 06:03:37;;;;;;;10.70;8.90;;;15.50;99.90;;;;;;5030567;28;20416;-70
2021/09/07 06:06:23;;;;;;;12.37;8.80;;;15.60;99.90;;;;;;5023631;28;20424;-70
2021/09/07 06:09:10;;;;;;;22.27;9.17;;;15.70;99.90;;;;;;5024863;28;20511;-70
2021/09/07 06:11:56;;;;;;;25.30;10.00;;;15.80;99.90;;;;;;5032943;28;20456;-71
2021/09/07 06:14:42;;;;;;;14.77;10.93;;;15.80;99.90;;;;;;5029528;28;21120;-70
2021/09/07 06:17:27;;;;;;;16.20;10.73;;;15.80;99.90;;;;;;5032180;28;20428;-70
2021/09/07 06:20:13;;;;;;;16.90;10.30;;;15.90;99.90;;;;;;5030555;28;20472;-71
2021/09/07 06:22:59;;;;;;;17.23;10.57;;;15.90;99.90;;;;;;5031271;28;20577;-70
2021/09/07 06:25:46;;;;;;;11.37;10.20;;;15.70;99.90;;;;;;5024124;28;20526;-70
2021/09/07 06:28:32;;;;;;;12.93;11.30;;;15.70;99.90;;;;;;5031826;28;20425;-70
2021/09/07 06:31:18;;;;;;;15.03;11.20;;;15.80;99.90;;;;;;5028691;28;20446;-70
2021/09/07 06:34:05;;;;;;;15.60;11.67;;;15.80;99.90;;;;;;5022601;28;20440;-70
2021/09/07 06:36:51;;;;;;;14.93;11.47;;;15.80;99.90;;;;;;5031188;28;20501;-70
2021/09/07 06:39:37;;;;;;;14.77;10.43;;;15.90;99.90;;;;;;5029750;28;20475;-70
2021/09/07 06:42:24;;;;;;;13.07;9.20;;;16.10;99.90;;;;;;5033094;28;20836;-70
2021/09/07 06:45:11;;;;;;;12.77;10.50;;;16.20;99.90;;;;;;5029794;28;20420;-70
2021/09/07 06:47:56;;;;;;;17.10;10.67;;;16.30;99.90;;;;;;5031624;28;20420;-70
2021/09/07 06:50:42;;;;;;;21.90;12.43;;;16.40;99.90;;;;;;5029754;28;20539;-70
2021/09/07 06:53:28;;;;;;;15.17;11.90;;;16.50;99.90;;;;;;5026630;28;20973;-71
2021/09/07 06:56:13;;;;;;;12.47;11.23;;;16.50;99.90;;;;;;5030001;28;20436;-72
2021/09/07 06:59:00;;;;;;;12.07;10.77;;;16.50;99.90;;;;;;5026345;28;20423;-70
2021/09/07 07:01:46;;;;;;;13.83;10.80;;;16.50;99.90;;;;;;5030581;28;20592;-70
2021/09/07 07:04:32;;;;;;;14.57;11.53;;;16.50;99.90;;;;;;5021701;28;20948;-71
2021/09/07 07:07:17;;;;;;;16.37;10.80;;;16.60;99.90;;;;;;5032668;28;20422;-70
2021/09/07 07:10:03;;;;;;;15.60;11.43;;;16.70;99.90;;;;;;5028061;28;20884;-70
2021/09/07 07:12:49;;;;;;;15.90;12.67;;;16.80;99.90;;;;;;5030313;28;20573;-70
2021/09/07 07:15:35;;;;;;;17.30;11.03;;;16.80;99.90;;;;;;5027640;28;20855;-70
2021/09/07 07:18:21;;;;;;;14.90;12.10;;;17.00;99.90;;;;;;5027226;28;20443;-71
2021/09/07 07:21:07;;;;;;;18.03;12.00;;;17.10;99.90;;;;;;5022463;28;21041;-70
2021/09/07 07:23:52;;;;;;;17.37;11.73;;;17.20;99.90;;;;;;5025858;28;20887;-71
2021/09/07 07:26:38;;;;;;;12.77;11.47;;;17.30;99.90;;;;;;5031946;28;20792;-70
2021/09/07 07:29:24;;;;;;;14.83;12.03;;;17.40;99.90;;;;;;5024974;28;20454;-70
2021/09/07 07:32:11;;;;;;;22.70;11.83;;;17.50;99.90;;;;;;5032091;28;20434;-70
2021/09/07 07:34:57;;;;;;;15.50;11.80;;;17.60;99.90;;;;;;5023566;28;20991;-71
2021/09/07 07:37:42;;;;;;;13.70;11.83;;;17.70;99.90;;;;;;5029768;28;20452;-70
2021/09/07 07:40:28;;;;;;;20.47;10.87;;;17.80;99.90;;;;;;5024040;28;20470;-71
2021/09/07 07:43:14;;;;;;;15.37;11.30;;;17.80;99.90;;;;;;5025701;28;20422;-70
2021/09/07 07:46:00;;;;;;;17.33;12.90;;;17.90;99.90;;;;;;5023031;28;20439;-70
2021/09/07 07:48:46;;;;;;;15.63;12.23;;;18.00;99.90;;;;;;5030965;28;20473;-73
2021/09/07 07:51:32;;;;;;;19.07;14.77;;;18.10;99.90;;;;;;5026043;28;20466;-70
2021/09/07 07:54:18;;;;;;;20.23;14.57;;;18.20;99.90;;;;;;5017650;28;20477;-70
2021/09/07 07:57:04;;;;;;;15.43;13.80;;;18.40;99.90;;;;;;5024158;28;20432;-71
2021/09/07 07:59:50;;;;;;;30.50;13.80;;;18.40;99.90;;;;;;5024137;28;20544;-71
2021/09/07 08:02:36;;;;;;;13.90;12.47;;;18.60;99.90;;;;;;5022278;28;20454;-72
2021/09/07 08:05:23;;;;;;;14.67;11.63;;;18.80;99.90;;;;;;5031305;28;20923;-72
2021/09/07 08:08:09;;;;;;;13.73;11.17;;;19.00;99.90;;;;;;5022135;28;20446;-70
2021/09/07 08:10:54;;;;;;;17.87;11.63;;;19.10;99.90;;;;;;5031634;28;20446;-71
2021/09/07 08:13:40;;;;;;;14.93;10.67;;;19.30;99.90;;;;;;5025147;28;20467;-72
2021/09/07 08:16:26;;;;;;;12.97;11.30;;;19.40;99.90;;;;;;5029870;28;20770;-70
2021/09/07 08:19:11;;;;;;;12.80;11.50;;;19.50;99.90;;;;;;5028831;28;20907;-71
2021/09/07 08:21:58;;;;;;;14.67;11.43;;;19.70;99.90;;;;;;5026496;28;20892;-71
2021/09/07 08:24:45;;;;;;;12.30;10.77;;;19.90;99.90;;;;;;5026381;28;20835;-71
2021/09/07 08:27:31;;;;;;;12.33;9.80;;;20.00;99.90;;;;;;5027740;28;20397;-71
2021/09/07 08:30:17;;;;;;;13.20;10.80;;;20.20;99.90;;;;;;5027121;28;20479;-71
2021/09/07 08:33:02;;;;;;;13.77;10.07;;;20.40;99.90;;;;;;5027685;28;20895;-72
2021/09/07 08:35:50;;;;;;;15.07;9.67;;;20.50;99.90;;;;;;5029032;28;20480;-71
2021/09/07 08:38:37;;;;;;;12.40;10.17;;;20.60;99.90;;;;;;5035436;28;20430;-71
2021/09/07 08:41:22;;;;;;;14.30;11.13;;;20.80;99.90;;;;;;5032042;28;20548;-71
2021/09/07 08:44:09;;;;;;;17.00;11.10;;;20.80;99.90;;;;;;5015580;28;20434;-71
2021/09/07 08:46:54;;;;;;;13.30;10.80;;;20.90;99.90;;;;;;5034218;28;20901;-71
2021/09/07 08:49:40;;;;;;;13.87;10.40;;;21.00;99.90;;;;;;5031816;28;20688;-71
2021/09/07 08:52:26;;;;;;;14.13;10.30;;;21.10;99.90;;;;;;5031407;28;20450;-71
2021/09/07 08:55:13;;;;;;;13.33;9.97;;;21.20;99.90;;;;;;5026221;28;20558;-71
2021/09/07 08:57:59;;;;;;;11.80;9.70;;;21.30;99.90;;;;;;5034798;28;20427;-70
2021/09/07 09:00:49;;;;;;;18.93;10.60;;;21.50;99.90;;;;;;5032424;28;20487;-71
2021/09/07 09:03:34;;;;;;;14.30;10.83;;;21.60;99.90;;;;;;5033112;28;20457;-72
2021/09/07 09:06:25;;;;;;;16.53;11.37;;;21.70;99.90;;;;;;5036543;28;20410;-71
2021/09/07 09:09:12;;;;;;;11.80;10.00;;;21.70;99.90;;;;;;5029545;28;20481;-71
2021/09/07 09:11:58;;;;;;;13.40;10.03;;;21.80;99.90;;;;;;5036091;28;20487;-72
2021/09/07 09:14:47;;;;;;;12.00;9.97;;;21.90;99.90;;;;;;5024051;28;20480;-72
2021/09/07 09:17:33;;;;;;;15.93;9.47;;;22.00;99.90;;;;;;5019746;28;20451;-72
2021/09/07 09:20:20;;;;;;;13.10;9.33;;;22.00;99.90;;;;;;5014447;28;21011;-73
2021/09/07 09:23:06;;;;;;;11.60;10.20;;;22.10;99.90;;;;;;5025980;28;20423;-73
2021/09/07 09:25:52;;;;;;;12.70;9.60;;;22.10;99.90;;;;;;5026077;28;20442;-71
2021/09/07 09:28:39;;;;;;;10.60;8.20;;;22.10;99.90;;;;;;5025592;28;20456;-73
2021/09/07 09:31:25;;;;;;;12.13;8.50;;;22.30;99.90;;;;;;5028497;28;20504;-73
2021/09/07 09:34:10;;;;;;;12.40;9.50;;;22.40;99.90;;;;;;5028567;28;20466;-72
2021/09/07 09:36:58;;;;;;;15.97;10.00;;;22.50;99.90;;;;;;5033512;28;20484;-73
2021/09/07 09:39:46;;;;;;;15.97;9.50;;;22.50;99.90;;;;;;5025667;28;20407;-73
2021/09/07 09:42:34;;;;;;;16.00;9.53;;;22.60;99.90;;;;;;5020649;28;20439;-73
2021/09/07 09:45:29;;;;;;;11.63;9.40;;;22.70;99.90;;;;;;5019764;28;20455;-72
2021/09/07 09:48:25;;;;;;;14.67;9.90;;;22.70;99.90;;;;;;5015517;28;20556;-72
2021/09/07 09:51:16;;;;;;;11.67;9.70;;;22.90;99.90;;;;;;5025930;28;20444;-71
2021/09/07 09:54:01;;;;;;;13.10;9.63;;;23.00;99.90;;;;;;5024751;28;20455;-72
2021/09/07 09:56:47;;;;;;;11.70;9.60;;;23.10;99.90;;;;;;5029922;28;20441;-72
2021/09/07 09:59:33;;;;;;;13.60;9.13;;;23.10;99.90;;;;;;5026700;28;20445;-72
2021/09/07 10:02:21;;;;;;;12.03;9.80;;;23.30;99.90;;;;;;5020558;28;20448;-72
2021/09/07 10:05:09;;;;;;;12.53;9.03;;;23.40;99.90;;;;;;5026010;28;20439;-72
2021/09/07 10:07:55;;;;;;;11.77;9.70;;;23.50;99.90;;;;;;5025978;28;21114;-73
2021/09/07 10:10:45;;;;;;;10.10;9.10;;;23.60;99.90;;;;;;5019649;28;20498;-73
2021/09/07 10:13:35;;;;;;;10.50;9.40;;;23.70;99.90;;;;;;5030995;28;20816;-73
2021/09/07 10:16:30;;;;;;;14.73;10.67;;;23.80;99.90;;;;;;5029575;28;20476;-73
2021/09/07 10:19:43;;;;;;;10.00;8.97;;;23.90;99.90;;;;;;5028447;28;20447;-72
2021/09/07 10:23:27;;;;;;;10.20;8.80;;;24.00;99.90;;;;;;5041642;28;20412;-73
2021/09/07 10:26:13;;;;;;;15.07;10.03;;;24.00;99.90;;;;;;5037739;28;20451;-72
2021/09/07 10:29:00;;;;;;;13.13;8.83;;;24.10;99.90;;;;;;5030112;28;20410;-72
2021/09/07 10:31:48;;;;;;;10.83;9.53;;;24.10;99.90;;;;;;5022285;28;20503;-72
2021/09/07 10:35:11;;;;;;;16.20;9.80;;;24.30;99.90;;;;;;5045062;28;20468;-73
2021/09/07 10:38:10;;;;;;;10.93;9.57;;;24.40;99.90;;;;;;5030864;28;20546;-72
2021/09/07 10:40:56;;;;;;;10.50;7.60;;;24.50;99.90;;;;;;5018538;28;20994;-72
2021/09/07 10:43:56;;;;;;;12.50;9.80;;;24.60;99.90;;;;;;5014821;28;20422;-72
2021/09/07 10:46:47;;;;;;;17.03;9.53;;;24.70;99.90;;;;;;5014675;28;20466;-72
2021/09/07 10:49:49;;;;;;;13.50;9.80;;;24.60;97.90;;;;;;5015743;28;20454;-73
2021/09/07 10:52:36;;;;;;;14.73;9.63;;;24.50;97.70;;;;;;5014559;28;20397;-72
2021/09/07 10:55:24;;;;;;;10.90;9.43;;;24.60;98.00;;;;;;5014398;28;20940;-72
2021/09/07 10:58:33;;;;;;;13.63;9.97;;;24.50;97.60;;;;;;5016493;28;21083;-72
2021/09/07 11:01:30;;;;;;;17.33;11.20;;;24.60;98.00;;;;;;5024534;28;20460;-73
2021/09/07 11:04:34;;;;;;;16.87;10.07;;;24.70;97.60;;;;;;5013886;28;20985;-72
2021/09/07 11:07:40;;;;;;;11.87;9.67;;;24.50;95.20;;;;;;5024455;28;20417;-72
2021/09/07 11:10:32;;;;;;;13.53;11.27;;;24.60;95.70;;;;;;5030100;28;20809;-72
2021/09/07 11:13:24;;;;;;;12.83;11.23;;;24.50;96.00;;;;;;5022602;28;20504;-73
2021/09/07 11:16:11;;;;;;;11.93;9.50;;;24.30;95.90;;;;;;5012642;28;20472;-73
2021/09/07 11:19:02;;;;;;;15.53;9.53;;;24.40;96.80;;;;;;5014177;28;20474;-73
2021/09/07 11:21:47;;;;;;;11.57;10.27;;;24.50;96.30;;;;;;5015992;28;20490;-71
2021/09/07 11:24:33;;;;;;;12.53;9.87;;;24.80;96.90;;;;;;5033205;28;20433;-73
2021/09/07 11:27:20;;;;;;;10.37;9.10;;;24.90;95.40;;;;;;5024213;28;20444;-73
2021/09/07 11:30:24;;;;;;;10.23;9.13;;;25.20;96.50;;;;;;5014471;28;20459;-71
2021/09/07 11:33:12;;;;;;;11.23;9.60;;;25.40;96.50;;;;;;5016154;28;20422;-71
2021/09/07 11:36:00;;;;;;;10.40;9.30;;;25.40;93.20;;;;;;5023848;28;20477;-73
2021/09/07 11:38:47;;;;;;;16.93;9.77;;;25.30;92.00;;;;;;5024391;28;20481;-73
2021/09/07 11:41:33;;;;;;;21.60;10.10;;;25.40;91.80;;;;;;5014007;28;20594;-73
2021/09/07 11:44:20;;;;;;;22.50;9.90;;;25.40;91.60;;;;;;5024446;28;20944;-72
2021/09/07 11:47:06;;;;;;;13.80;9.63;;;25.50;92.40;;;;;;5035211;28;20421;-72
2021/09/07 11:49:52;;;;;;;12.00;10.30;;;25.60;91.90;;;;;;5029018;28;20622;-71
2021/09/07 11:52:38;;;;;;;10.53;9.30;;;25.50;90.00;;;;;;5015993;28;20422;-74
2021/09/07 11:55:43;;;;;;;11.30;9.97;;;25.60;89.10;;;;;;5034268;28;20450;-73
2021/09/07 11:58:32;;;;;;;12.70;10.47;;;25.70;87.60;;;;;;5018892;28;20990;-73
2021/09/07 12:01:23;;;;;;;10.70;9.60;;;25.60;85.30;;;;;;5026575;28;21017;-73
2021/09/07 12:04:13;;;;;;;10.40;9.40;;;25.60;86.40;;;;;;5027440;28;21156;-73
2021/09/07 12:07:05;;;;;;;11.23;9.00;;;25.70;87.30;;;;;;5028774;28;20584;-74
2021/09/07 12:09:51;;;;;;;11.63;10.23;;;25.90;87.40;;;;;;5029521;28;20445;-74
2021/09/07 12:12:38;;;;;;;11.70;9.73;;;26.20;86.60;;;;;;5023224;28;20462;-73
2021/09/07 12:15:24;;;;;;;17.27;10.40;;;26.10;76.70;;;;;;5024474;28;20473;-72
2021/09/07 12:18:26;;;;;;;12.70;9.30;;;26.20;80.70;;;;;;5021986;28;20449;-73
2021/09/07 12:21:21;;;;;;;14.03;10.30;;;26.20;78.20;;;;;;5024963;28;20493;-73
2021/09/07 12:24:14;;;;;;;11.20;8.67;;;26.10;75.50;;;;;;5025315;28;20567;-73
2021/09/07 12:27:00;;;;;;;10.67;9.53;;;26.10;75.70;;;;;;5033145;28;20464;-72
2021/09/07 12:30:22;;;;;;;11.27;9.50;;;26.30;76.40;;;;;;5025693;28;20461;-73
2021/09/07 12:33:13;;;;;;;10.70;9.10;;;26.40;68.70;;;;;;5030753;28;20429;-73
2021/09/07 12:36:00;;;;;;;13.23;9.00;;;26.40;68.10;;;;;;5023862;28;20468;-73
2021/09/07 12:38:46;;;;;;;10.97;8.70;;;26.30;65.70;;;;;;5031247;28;20434;-73
2021/09/07 12:41:32;;;;;;;17.50;9.00;;;26.50;64.20;;;;;;5031227;28;20477;-72
2021/09/07 12:44:18;;;;;;;9.60;8.40;;;26.60;66.70;;;;;;5031366;28;20984;-73
2021/09/07 12:47:04;;;;;;;12.57;9.87;;;26.30;63.00;;;;;;5031365;28;20423;-73
2021/09/07 12:49:51;;;;;;;10.17;9.10;;;26.20;65.70;;;;;;5031499;28;20428;-74
2021/09/07 12:52:37;;;;;;;10.53;8.50;;;26.10;64.00;;;;;;5031203;28;20515;-73
2021/09/07 12:55:22;;;;;;;9.47;7.70;;;26.10;59.50;;;;;;5026367;28;20486;-73
2021/09/07 12:58:08;;;;;;;10.30;8.20;;;26.10;58.50;;;;;;5011623;28;20816;-74
2021/09/07 13:00:54;;;;;;;10.00;8.33;;;26.30;61.70;;;;;;5011419;28;20478;-72
2021/09/07 13:03:40;;;;;;;15.80;8.67;;;26.60;59.20;;;;;;5011183;28;20430;-74
2021/09/07 13:06:29;;;;;;;13.13;9.20;;;26.90;62.30;;;;;;5021056;28;20497;-74
2021/09/07 13:09:14;;;;;;;12.60;8.40;;;27.30;60.40;;;;;;5031009;28;20577;-74
2021/09/07 13:12:00;;;;;;;11.73;8.90;;;27.50;57.30;;;;;;5031383;28;21006;-74
2021/09/07 13:14:46;;;;;;;11.10;9.70;;;27.50;56.80;;;;;;5030580;28;20964;-74
2021/09/07 13:17:31;;;;;;;15.00;9.10;;;27.10;56.40;;;;;;5033088;28;20988;-73
2021/09/07 13:20:17;;;;;;;14.20;8.63;;;27.00;57.90;;;;;;5034267;28;20446;-72
2021/09/07 13:23:04;;;;;;;9.67;8.37;;;27.00;59.30;;;;;;5026311;28;20450;-74
2021/09/07 13:25:50;;;;;;;11.90;8.90;;;27.00;60.20;;;;;;5022887;28;20978;-74
2021/09/07 13:28:35;;;;;;;17.83;9.43;;;26.90;60.10;;;;;;5030723;28;20851;-73
2021/09/07 13:31:21;;;;;;;9.80;8.50;;;27.10;57.50;;;;;;5016311;28;20528;-73
2021/09/07 13:34:06;;;;;;;10.90;8.00;;;27.40;55.80;;;;;;5020506;28;20442;-74
2021/09/07 13:36:52;;;;;;;12.00;8.50;;;27.30;53.10;;;;;;5028110;28;20474;-74
2021/09/07 13:39:39;;;;;;;9.90;8.20;;;27.50;59.40;;;;;;5023665;28;20457;-71
2021/09/07 13:42:25;;;;;;;9.80;8.17;;;27.40;55.90;;;;;;5013214;28;20543;-73
2021/09/07 13:45:11;;;;;;;10.63;8.23;;;27.40;52.30;;;;;;5022727;28;20445;-73
2021/09/07 13:47:57;;;;;;;13.10;7.60;;;27.00;53.90;;;;;;5025383;28;21025;-74
2021/09/07 13:50:43;;;;;;;10.07;8.33;;;27.10;51.30;;;;;;5025269;28;20529;-74
2021/09/07 13:53:29;;;;;;;8.73;7.17;;;27.10;54.40;;;;;;5024004;28;20937;-73
2021/09/07 13:56:16;;;;;;;14.17;8.27;;;27.30;52.10;;;;;;5021402;28;20475;-73
2021/09/07 13:59:01;;;;;;;11.30;8.13;;;27.30;49.40;;;;;;5025624;28;20450;-73
2021/09/07 14:01:47;;;;;;;9.87;8.87;;;27.70;52.50;;;;;;5031195;28;20463;-73
2021/09/07 14:04:33;;;;;;;10.50;8.40;;;27.90;49.20;;;;;;5033304;28;20485;-73
2021/09/07 14:07:19;;;;;;;9.93;8.57;;;28.10;51.30;;;;;;5024876;28;20578;-73
2021/09/07 14:10:05;;;;;;;12.53;8.70;;;28.20;48.80;;;;;;5027806;28;20469;-73
2021/09/07 14:12:53;;;;;;;9.23;8.20;;;28.20;50.70;;;;;;5030989;28;20455;-73
2021/09/07 14:15:38;;;;;;;10.23;8.67;;;28.20;48.40;;;;;;5028327;28;21023;-73
2021/09/07 14:18:28;;;;;;;13.80;8.93;;;28.10;49.30;;;;;;5020171;28;20895;-73